sensor_id;sensor_type;location;lat;lon;timestamp;temperature;humidity
1988;DHT22;12775;46.994;15.498;2024-01-16T00:02:15;-0.60;99.90
1988;DHT22;12775;46.994;15.498;2024-01-16T00:04:41;-0.70;99.90
1988;DHT22;12775;46.994;15.498;2024-01-16T00:07:09;-0.50;99.90
1988;DHT22;12775;46.994;15.498;2024-01-16T00:09:36;-0.50;99.90
1988;DHT22;12775;46.994;15.498;2024-01-16T00:12:04;-0.40;99.90
1988;DHT22;12775;46.994;15.498;2024-01-16T00:14:35;-0.30;99.90
1988;DHT22;12775;46.994;15.498;2024-01-16T00:17:01;-0.20;99.90
1988;DHT22;12775;46.994;15.498;2024-01-16T00:19:29;-0.20;99.90
1988;DHT22;12775;46.994;15.498;2024-01-16T00:21:56;-0.20;99.90
1988;DHT22;12775;46.994;15.498;2024-01-16T00:24:24;-0.20;99.70
1988;DHT22;12775;46.994;15.498;2024-01-16T00:26:51;-0.30;99.40
1988;DHT22;12775;46.994;15.498;2024-01-16T00:29:18;-0.30;99.50
1988;DHT22;12775;46.994;15.498;2024-01-16T00:31:46;-0.30;99.40
1988;DHT22;12775;46.994;15.498;2024-01-16T00:34:13;-0.30;99.20
1988;DHT22;12775;46.994;15.498;2024-01-16T00:36:40;-0.40;99.40
1988;DHT22;12775;46.994;15.498;2024-01-16T00:39:08;-0.40;99.40
1988;DHT22;12775;46.994;15.498;2024-01-16T00:41:35;-0.30;99.50
1988;DHT22;12775;46.994;15.498;2024-01-16T00:44:02;-0.30;99.30
1988;DHT22;12775;46.994;15.498;2024-01-16T00:46:30;-0.20;98.70
1988;DHT22;12775;46.994;15.498;2024-01-16T00:48:57;-0.10;98.30
1988;DHT22;12775;46.994;15.498;2024-01-16T00:51:25;0.00;97.80
1988;DHT22;12775;46.994;15.498;2024-01-16T00:53:52;0.00;97.20
1988;DHT22;12775;46.994;15.498;2024-01-16T00:56:19;0.00;96.30
1988;DHT22;12775;46.994;15.498;2024-01-16T00:58:47;0.00;96.20
1988;DHT22;12775;46.994;15.498;2024-01-16T01:01:14;0.10;95.90
1988;DHT22;12775;46.994;15.498;2024-01-16T01:03:41;0.10;95.20
1988;DHT22;12775;46.994;15.498;2024-01-16T01:06:09;0.10;95.40
1988;DHT22;12775;46.994;15.498;2024-01-16T01:08:36;0.10;95.10
1988;DHT22;12775;46.994;15.498;2024-01-16T01:11:03;0.10;94.80
1988;DHT22;12775;46.994;15.498;2024-01-16T01:13:31;0.10;94.60
1988;DHT22;12775;46.994;15.498;2024-01-16T01:15:58;0.10;94.30
1988;DHT22;12775;46.994;15.498;2024-01-16T01:18:26;0.00;93.80
1988;DHT22;12775;46.994;15.498;2024-01-16T01:20:53;-0.10;93.90
1988;DHT22;12775;46.994;15.498;2024-01-16T01:23:20;-0.20;93.90
1988;DHT22;12775;46.994;15.498;2024-01-16T01:25:48;-0.30;94.90
1988;DHT22;12775;46.994;15.498;2024-01-16T01:28:15;-0.60;95.20
1988;DHT22;12775;46.994;15.498;2024-01-16T01:30:42;-0.80;96.30
1988;DHT22;12775;46.994;15.498;2024-01-16T01:33:12;-0.70;96.50
1988;DHT22;12775;46.994;15.498;2024-01-16T01:35:40;-0.80;96.40
1988;DHT22;12775;46.994;15.498;2024-01-16T01:38:07;-0.70;96.40
1988;DHT22;12775;46.994;15.498;2024-01-16T01:40:34;-1.10;97.70
1988;DHT22;12775;46.994;15.498;2024-01-16T01:45:42;-1.20;97.40
1988;DHT22;12775;46.994;15.498;2024-01-16T01:48:09;-1.10;97.80
1988;DHT22;12775;46.994;15.498;2024-01-16T01:50:36;-1.10;97.80
1988;DHT22;12775;46.994;15.498;2024-01-16T01:53:03;-1.20;97.60
1988;DHT22;12775;46.994;15.498;2024-01-16T01:55:29;-1.30;97.70
1988;DHT22;12775;46.994;15.498;2024-01-16T01:57:56;-1.20;97.50
1988;DHT22;12775;46.994;15.498;2024-01-16T02:00:23;-1.40;97.60
1988;DHT22;12775;46.994;15.498;2024-01-16T02:02:49;-1.30;97.60
1988;DHT22;12775;46.994;15.498;2024-01-16T02:05:16;-1.30;96.90
1988;DHT22;12775;46.994;15.498;2024-01-16T02:07:42;-1.30;97.10
1988;DHT22;12775;46.994;15.498;2024-01-16T02:10:09;-1.30;97.10
1988;DHT22;12775;46.994;15.498;2024-01-16T02:12:36;-1.20;96.80
1988;DHT22;12775;46.994;15.498;2024-01-16T02:15:03;-1.30;96.30
1988;DHT22;12775;46.994;15.498;2024-01-16T02:17:29;-1.20;96.50
1988;DHT22;12775;46.994;15.498;2024-01-16T02:19:56;-1.30;96.70
1988;DHT22;12775;46.994;15.498;2024-01-16T02:22:23;-1.40;96.70
1988;DHT22;12775;46.994;15.498;2024-01-16T02:24:49;-1.30;96.50
1988;DHT22;12775;46.994;15.498;2024-01-16T02:27:16;-1.30;96.40
1988;DHT22;12775;46.994;15.498;2024-01-16T02:29:43;-1.30;96.40
1988;DHT22;12775;46.994;15.498;2024-01-16T02:32:12;-1.20;95.70
1988;DHT22;12775;46.994;15.498;2024-01-16T02:34:38;-1.30;95.40
1988;DHT22;12775;46.994;15.498;2024-01-16T02:37:06;-1.30;95.50
1988;DHT22;12775;46.994;15.498;2024-01-16T02:39:33;-1.30;95.50
1988;DHT22;12775;46.994;15.498;2024-01-16T02:42:00;-1.30;95.00
1988;DHT22;12775;46.994;15.498;2024-01-16T02:44:26;-1.40;95.60
1988;DHT22;12775;46.994;15.498;2024-01-16T02:46:53;-1.40;95.50
1988;DHT22;12775;46.994;15.498;2024-01-16T02:49:19;-1.40;95.30
1988;DHT22;12775;46.994;15.498;2024-01-16T02:51:46;-1.30;95.50
1988;DHT22;12775;46.994;15.498;2024-01-16T02:54:13;-1.30;95.00
1988;DHT22;12775;46.994;15.498;2024-01-16T02:56:41;-1.30;95.20
1988;DHT22;12775;46.994;15.498;2024-01-16T02:59:08;-1.30;94.80
1988;DHT22;12775;46.994;15.498;2024-01-16T03:01:35;-1.30;94.90
1988;DHT22;12775;46.994;15.498;2024-01-16T03:04:03;-1.30;95.10
1988;DHT22;12775;46.994;15.498;2024-01-16T03:06:30;-1.20;95.00
1988;DHT22;12775;46.994;15.498;2024-01-16T03:08:58;-1.20;94.70
1988;DHT22;12775;46.994;15.498;2024-01-16T03:11:24;-1.20;94.70
1988;DHT22;12775;46.994;15.498;2024-01-16T03:13:51;-1.30;95.10
1988;DHT22;12775;46.994;15.498;2024-01-16T03:16:17;-1.40;95.20
1988;DHT22;12775;46.994;15.498;2024-01-16T03:18:44;-1.40;95.00
1988;DHT22;12775;46.994;15.498;2024-01-16T03:21:13;-1.30;94.80
1988;DHT22;12775;46.994;15.498;2024-01-16T03:23:38;-1.30;94.50
1988;DHT22;12775;46.994;15.498;2024-01-16T03:26:06;-1.20;94.10
1988;DHT22;12775;46.994;15.498;2024-01-16T03:28:34;-1.40;93.90
1988;DHT22;12775;46.994;15.498;2024-01-16T03:31:01;-1.70;94.90
1988;DHT22;12775;46.994;15.498;2024-01-16T03:33:28;-1.80;94.80
1988;DHT22;12775;46.994;15.498;2024-01-16T03:35:56;-1.80;94.70
1988;DHT22;12775;46.994;15.498;2024-01-16T03:38:23;-1.80;94.90
1988;DHT22;12775;46.994;15.498;2024-01-16T03:40:51;-1.80;95.30
1988;DHT22;12775;46.994;15.498;2024-01-16T03:43:19;-1.80;94.20
1988;DHT22;12775;46.994;15.498;2024-01-16T03:45:46;-1.80;94.30
1988;DHT22;12775;46.994;15.498;2024-01-16T03:48:13;-1.80;93.90
1988;DHT22;12775;46.994;15.498;2024-01-16T03:50:41;-1.90;94.70
1988;DHT22;12775;46.994;15.498;2024-01-16T03:53:07;-1.90;94.70
1988;DHT22;12775;46.994;15.498;2024-01-16T03:55:34;-1.90;95.10
1988;DHT22;12775;46.994;15.498;2024-01-16T03:58:01;-1.90;94.70
1988;DHT22;12775;46.994;15.498;2024-01-16T04:00:29;-1.90;94.20
1988;DHT22;12775;46.994;15.498;2024-01-16T04:02:56;-1.90;94.40
1988;DHT22;12775;46.994;15.498;2024-01-16T04:05:23;-1.90;94.20
1988;DHT22;12775;46.994;15.498;2024-01-16T04:07:51;-2.10;94.40
1988;DHT22;12775;46.994;15.498;2024-01-16T04:10:18;-2.10;95.00
1988;DHT22;12775;46.994;15.498;2024-01-16T04:12:45;-2.10;95.40
1988;DHT22;12775;46.994;15.498;2024-01-16T04:15:13;-2.00;95.20
1988;DHT22;12775;46.994;15.498;2024-01-16T04:17:40;-1.90;95.00
1988;DHT22;12775;46.994;15.498;2024-01-16T04:20:08;-1.90;94.30
1988;DHT22;12775;46.994;15.498;2024-01-16T04:22:35;-1.90;94.30
1988;DHT22;12775;46.994;15.498;2024-01-16T04:25:03;-2.00;93.60
1988;DHT22;12775;46.994;15.498;2024-01-16T04:27:30;-2.00;93.60
1988;DHT22;12775;46.994;15.498;2024-01-16T04:29:56;-1.90;93.70
1988;DHT22;12775;46.994;15.498;2024-01-16T04:32:23;-1.90;93.80
1988;DHT22;12775;46.994;15.498;2024-01-16T04:34:49;-1.90;93.30
1988;DHT22;12775;46.994;15.498;2024-01-16T04:37:16;-1.80;93.30
1988;DHT22;12775;46.994;15.498;2024-01-16T04:39:42;-1.80;93.30
1988;DHT22;12775;46.994;15.498;2024-01-16T04:42:09;-1.80;92.70
1988;DHT22;12775;46.994;15.498;2024-01-16T04:44:36;-1.90;92.60
1988;DHT22;12775;46.994;15.498;2024-01-16T04:47:02;-2.00;92.20
1988;DHT22;12775;46.994;15.498;2024-01-16T04:49:29;-2.00;91.80
1988;DHT22;12775;46.994;15.498;2024-01-16T04:51:55;-1.90;92.30
1988;DHT22;12775;46.994;15.498;2024-01-16T04:54:22;-2.00;92.30
1988;DHT22;12775;46.994;15.498;2024-01-16T04:56:49;-2.00;92.50
1988;DHT22;12775;46.994;15.498;2024-01-16T04:59:16;-2.00;92.50
1988;DHT22;12775;46.994;15.498;2024-01-16T05:01:43;-2.00;92.30
1988;DHT22;12775;46.994;15.498;2024-01-16T05:04:09;-2.00;92.10
1988;DHT22;12775;46.994;15.498;2024-01-16T05:06:36;-2.00;91.80
1988;DHT22;12775;46.994;15.498;2024-01-16T05:09:03;-2.00;92.30
1988;DHT22;12775;46.994;15.498;2024-01-16T05:11:30;-1.90;91.70
1988;DHT22;12775;46.994;15.498;2024-01-16T05:13:57;-1.90;91.50
1988;DHT22;12775;46.994;15.498;2024-01-16T05:16:25;-1.90;91.70
1988;DHT22;12775;46.994;15.498;2024-01-16T05:18:52;-1.90;91.90
1988;DHT22;12775;46.994;15.498;2024-01-16T05:21:20;-1.90;92.00
1988;DHT22;12775;46.994;15.498;2024-01-16T05:23:47;-1.90;91.70
1988;DHT22;12775;46.994;15.498;2024-01-16T05:26:14;-1.90;91.70
1988;DHT22;12775;46.994;15.498;2024-01-16T05:28:41;-1.90;91.20
1988;DHT22;12775;46.994;15.498;2024-01-16T05:31:09;-1.90;91.10
1988;DHT22;12775;46.994;15.498;2024-01-16T05:33:36;-1.90;91.00
1988;DHT22;12775;46.994;15.498;2024-01-16T05:36:03;-1.90;90.90
1988;DHT22;12775;46.994;15.498;2024-01-16T05:38:29;-1.80;91.00
1988;DHT22;12775;46.994;15.498;2024-01-16T05:40:57;-1.80;91.00
1988;DHT22;12775;46.994;15.498;2024-01-16T05:43:24;-1.90;90.50
1988;DHT22;12775;46.994;15.498;2024-01-16T05:45:52;-2.20;90.50
1988;DHT22;12775;46.994;15.498;2024-01-16T05:48:19;-2.40;90.90
1988;DHT22;12775;46.994;15.498;2024-01-16T05:50:46;-2.40;91.10
1988;DHT22;12775;46.994;15.498;2024-01-16T05:53:14;-2.40;90.40
1988;DHT22;12775;46.994;15.498;2024-01-16T05:55:41;-2.40;90.00
1988;DHT22;12775;46.994;15.498;2024-01-16T05:58:08;-2.50;90.60
1988;DHT22;12775;46.994;15.498;2024-01-16T06:00:36;-2.50;91.10
1988;DHT22;12775;46.994;15.498;2024-01-16T06:03:03;-2.50;91.70
1988;DHT22;12775;46.994;15.498;2024-01-16T06:05:31;-2.50;91.20
1988;DHT22;12775;46.994;15.498;2024-01-16T06:07:58;-2.70;91.30
1988;DHT22;12775;46.994;15.498;2024-01-16T06:10:25;-2.70;91.30
1988;DHT22;12775;46.994;15.498;2024-01-16T06:12:52;-2.70;91.40
1988;DHT22;12775;46.994;15.498;2024-01-16T06:15:19;-2.70;91.30
1988;DHT22;12775;46.994;15.498;2024-01-16T06:17:47;-2.70;91.40
1988;DHT22;12775;46.994;15.498;2024-01-16T06:20:14;-2.80;91.30
1988;DHT22;12775;46.994;15.498;2024-01-16T06:22:41;-2.70;91.70
1988;DHT22;12775;46.994;15.498;2024-01-16T06:25:09;-2.80;91.30
1988;DHT22;12775;46.994;15.498;2024-01-16T06:27:36;-3.00;91.60
1988;DHT22;12775;46.994;15.498;2024-01-16T06:30:04;-3.00;92.00
1988;DHT22;12775;46.994;15.498;2024-01-16T06:32:32;-2.90;92.00
1988;DHT22;12775;46.994;15.498;2024-01-16T06:34:59;-2.90;91.80
1988;DHT22;12775;46.994;15.498;2024-01-16T06:37:26;-3.10;92.10
1988;DHT22;12775;46.994;15.498;2024-01-16T06:39:55;-3.10;92.40
1988;DHT22;12775;46.994;15.498;2024-01-16T06:42:22;-3.10;92.50
1988;DHT22;12775;46.994;15.498;2024-01-16T06:44:49;-3.20;92.50
1988;DHT22;12775;46.994;15.498;2024-01-16T06:47:17;-3.30;92.60
1988;DHT22;12775;46.994;15.498;2024-01-16T06:49:44;-3.30;92.90
1988;DHT22;12775;46.994;15.498;2024-01-16T06:52:12;-3.40;93.40
1988;DHT22;12775;46.994;15.498;2024-01-16T06:54:40;-3.40;93.60
1988;DHT22;12775;46.994;15.498;2024-01-16T06:57:07;-3.60;94.10
1988;DHT22;12775;46.994;15.498;2024-01-16T06:59:34;-3.70;94.60
1988;DHT22;12775;46.994;15.498;2024-01-16T07:02:02;-3.70;94.80
1988;DHT22;12775;46.994;15.498;2024-01-16T07:04:29;-3.70;95.20
1988;DHT22;12775;46.994;15.498;2024-01-16T07:06:57;-3.70;95.40
1988;DHT22;12775;46.994;15.498;2024-01-16T07:09:24;-3.60;95.70
1988;DHT22;12775;46.994;15.498;2024-01-16T07:11:52;-3.70;96.10
1988;DHT22;12775;46.994;15.498;2024-01-16T07:14:19;-3.60;96.30
1988;DHT22;12775;46.994;15.498;2024-01-16T07:16:47;-3.60;96.40
1988;DHT22;12775;46.994;15.498;2024-01-16T07:19:15;-3.60;96.30
1988;DHT22;12775;46.994;15.498;2024-01-16T07:21:42;-3.50;96.20
1988;DHT22;12775;46.994;15.498;2024-01-16T07:24:09;-3.40;96.00
1988;DHT22;12775;46.994;15.498;2024-01-16T07:26:37;-3.40;96.20
1988;DHT22;12775;46.994;15.498;2024-01-16T07:29:04;-3.30;96.20
1988;DHT22;12775;46.994;15.498;2024-01-16T07:31:31;-3.30;96.30
1988;DHT22;12775;46.994;15.498;2024-01-16T07:33:59;-3.30;96.90
1988;DHT22;12775;46.994;15.498;2024-01-16T07:36:27;-3.30;97.40
1988;DHT22;12775;46.994;15.498;2024-01-16T07:38:54;-3.30;97.90
1988;DHT22;12775;46.994;15.498;2024-01-16T07:41:22;-3.40;98.40
1988;DHT22;12775;46.994;15.498;2024-01-16T07:43:49;-3.30;98.70
1988;DHT22;12775;46.994;15.498;2024-01-16T07:46:17;-3.20;98.80
1988;DHT22;12775;46.994;15.498;2024-01-16T07:48:45;-3.10;98.90
1988;DHT22;12775;46.994;15.498;2024-01-16T07:51:12;-3.10;99.10
1988;DHT22;12775;46.994;15.498;2024-01-16T07:53:40;-2.90;99.00
1988;DHT22;12775;46.994;15.498;2024-01-16T07:56:07;-2.90;98.90
1988;DHT22;12775;46.994;15.498;2024-01-16T07:58:34;-2.80;98.40
1988;DHT22;12775;46.994;15.498;2024-01-16T08:01:02;-2.70;98.50
1988;DHT22;12775;46.994;15.498;2024-01-16T08:03:29;-2.60;98.40
1988;DHT22;12775;46.994;15.498;2024-01-16T08:05:57;-2.50;98.60
1988;DHT22;12775;46.994;15.498;2024-01-16T08:08:24;-2.40;98.60
1988;DHT22;12775;46.994;15.498;2024-01-16T08:10:51;-2.30;98.30
1988;DHT22;12775;46.994;15.498;2024-01-16T08:13:19;-2.20;98.20
1988;DHT22;12775;46.994;15.498;2024-01-16T08:15:46;-2.20;97.60
1988;DHT22;12775;46.994;15.498;2024-01-16T08:18:13;-2.10;97.70
1988;DHT22;12775;46.994;15.498;2024-01-16T08:20:41;-2.00;97.50
1988;DHT22;12775;46.994;15.498;2024-01-16T08:23:08;-1.90;97.30
1988;DHT22;12775;46.994;15.498;2024-01-16T08:25:35;-2.00;97.20
1988;DHT22;12775;46.994;15.498;2024-01-16T08:28:02;-1.80;96.60
1988;DHT22;12775;46.994;15.498;2024-01-16T08:30:30;-1.70;97.10
1988;DHT22;12775;46.994;15.498;2024-01-16T08:32:57;-1.60;97.30
1988;DHT22;12775;46.994;15.498;2024-01-16T08:35:24;-1.50;96.20
1988;DHT22;12775;46.994;15.498;2024-01-16T08:37:52;-1.50;96.10
1988;DHT22;12775;46.994;15.498;2024-01-16T08:40:20;-1.40;96.40
1988;DHT22;12775;46.994;15.498;2024-01-16T08:42:47;-1.30;97.00
1988;DHT22;12775;46.994;15.498;2024-01-16T08:45:15;-1.20;97.00
1988;DHT22;12775;46.994;15.498;2024-01-16T08:47:42;-1.20;96.80
1988;DHT22;12775;46.994;15.498;2024-01-16T08:50:10;-1.10;96.50
1988;DHT22;12775;46.994;15.498;2024-01-16T08:52:37;-1.10;96.50
1988;DHT22;12775;46.994;15.498;2024-01-16T08:55:05;-1.00;96.40
1988;DHT22;12775;46.994;15.498;2024-01-16T08:57:32;-0.90;96.50
1988;DHT22;12775;46.994;15.498;2024-01-16T08:59:59;-0.90;96.80
1988;DHT22;12775;46.994;15.498;2024-01-16T09:02:27;-0.80;96.90
1988;DHT22;12775;46.994;15.498;2024-01-16T09:04:55;-0.70;96.70
1988;DHT22;12775;46.994;15.498;2024-01-16T09:07:22;-0.70;96.60
1988;DHT22;12775;46.994;15.498;2024-01-16T09:09:50;-0.70;96.70
1988;DHT22;12775;46.994;15.498;2024-01-16T09:12:17;-0.60;96.90
1988;DHT22;12775;46.994;15.498;2024-01-16T09:14:44;-0.50;96.80
1988;DHT22;12775;46.994;15.498;2024-01-16T09:17:12;-0.40;96.80
1988;DHT22;12775;46.994;15.498;2024-01-16T09:19:39;-0.30;96.20
1988;DHT22;12775;46.994;15.498;2024-01-16T09:22:06;-0.20;96.30
1988;DHT22;12775;46.994;15.498;2024-01-16T09:24:34;-0.10;96.60
1988;DHT22;12775;46.994;15.498;2024-01-16T09:27:01;0.00;96.80
1988;DHT22;12775;46.994;15.498;2024-01-16T09:29:29;0.10;97.70
1988;DHT22;12775;46.994;15.498;2024-01-16T09:31:56;0.10;97.80
1988;DHT22;12775;46.994;15.498;2024-01-16T09:34:23;0.30;96.10
1988;DHT22;12775;46.994;15.498;2024-01-16T09:36:51;0.30;94.80
1988;DHT22;12775;46.994;15.498;2024-01-16T09:39:18;0.40;94.40
1988;DHT22;12775;46.994;15.498;2024-01-16T09:41:46;0.50;93.50
1988;DHT22;12775;46.994;15.498;2024-01-16T09:46:49;0.70;92.60
1988;DHT22;12775;46.994;15.498;2024-01-16T09:49:16;0.70;92.60
1988;DHT22;12775;46.994;15.498;2024-01-16T09:51:43;0.80;93.40
1988;DHT22;12775;46.994;15.498;2024-01-16T09:54:09;0.90;92.90
1988;DHT22;12775;46.994;15.498;2024-01-16T09:56:38;1.00;90.50
1988;DHT22;12775;46.994;15.498;2024-01-16T09:59:05;1.20;81.20
1988;DHT22;12775;46.994;15.498;2024-01-16T10:01:29;1.20;81.00
1988;DHT22;12775;46.994;15.498;2024-01-16T10:03:57;1.40;86.40
1988;DHT22;12775;46.994;15.498;2024-01-16T10:06:24;1.60;88.50
1988;DHT22;12775;46.994;15.498;2024-01-16T10:08:51;1.60;83.90
1988;DHT22;12775;46.994;15.498;2024-01-16T10:11:19;1.70;86.80
1988;DHT22;12775;46.994;15.498;2024-01-16T10:13:46;1.80;87.70
1988;DHT22;12775;46.994;15.498;2024-01-16T10:16:14;1.90;89.50
1988;DHT22;12775;46.994;15.498;2024-01-16T10:18:41;2.00;87.50
1988;DHT22;12775;46.994;15.498;2024-01-16T10:21:26;2.00;87.50
1988;DHT22;12775;46.994;15.498;2024-01-16T10:23:53;2.10;76.90
1988;DHT22;12775;46.994;15.498;2024-01-16T10:26:19;2.30;82.60
1988;DHT22;12775;46.994;15.498;2024-01-16T10:28:46;2.40;84.50
1988;DHT22;12775;46.994;15.498;2024-01-16T10:31:13;2.70;84.60
1988;DHT22;12775;46.994;15.498;2024-01-16T10:33:41;2.80;86.50
1988;DHT22;12775;46.994;15.498;2024-01-16T10:36:11;2.90;86.10
1988;DHT22;12775;46.994;15.498;2024-01-16T10:38:38;2.90;86.10
1988;DHT22;12775;46.994;15.498;2024-01-16T10:41:08;3.10;87.00
1988;DHT22;12775;46.994;15.498;2024-01-16T10:43:33;3.40;82.90
1988;DHT22;12775;46.994;15.498;2024-01-16T10:46:15;3.50;83.60
1988;DHT22;12775;46.994;15.498;2024-01-16T10:48:43;3.70;85.20
1988;DHT22;12775;46.994;15.498;2024-01-16T10:51:11;3.90;85.50
1988;DHT22;12775;46.994;15.498;2024-01-16T10:53:39;4.00;82.90
1988;DHT22;12775;46.994;15.498;2024-01-16T10:56:05;4.20;76.00
1988;DHT22;12775;46.994;15.498;2024-01-16T10:58:33;4.30;75.20
1988;DHT22;12775;46.994;15.498;2024-01-16T11:01:02;4.40;60.80
1988;DHT22;12775;46.994;15.498;2024-01-16T11:03:39;4.50;62.20
1988;DHT22;12775;46.994;15.498;2024-01-16T11:06:07;4.70;59.10
1988;DHT22;12775;46.994;15.498;2024-01-16T11:08:36;4.60;72.40
1988;DHT22;12775;46.994;15.498;2024-01-16T11:11:05;4.50;75.30
1988;DHT22;12775;46.994;15.498;2024-01-16T11:13:33;4.50;76.00
1988;DHT22;12775;46.994;15.498;2024-01-16T11:16:02;4.50;71.60
1988;DHT22;12775;46.994;15.498;2024-01-16T11:18:30;4.60;69.20
1988;DHT22;12775;46.994;15.498;2024-01-16T11:20:57;4.50;68.00
1988;DHT22;12775;46.994;15.498;2024-01-16T11:23:23;4.50;68.00
1988;DHT22;12775;46.994;15.498;2024-01-16T11:25:50;4.50;67.30
1988;DHT22;12775;46.994;15.498;2024-01-16T11:28:17;4.60;65.20
1988;DHT22;12775;46.994;15.498;2024-01-16T11:30:45;4.70;65.90
1988;DHT22;12775;46.994;15.498;2024-01-16T11:35:54;4.80;67.40
1988;DHT22;12775;46.994;15.498;2024-01-16T11:38:25;4.90;62.40
1988;DHT22;12775;46.994;15.498;2024-01-16T11:40:53;4.90;60.20
1988;DHT22;12775;46.994;15.498;2024-01-16T11:43:35;5.00;60.00
1988;DHT22;12775;46.994;15.498;2024-01-16T11:46:04;5.10;67.60
1988;DHT22;12775;46.994;15.498;2024-01-16T11:48:30;5.20;63.80
1988;DHT22;12775;46.994;15.498;2024-01-16T11:50:57;5.40;60.70
1988;DHT22;12775;46.994;15.498;2024-01-16T11:53:34;5.50;60.60
1988;DHT22;12775;46.994;15.498;2024-01-16T11:56:39;5.60;58.60
1988;DHT22;12775;46.994;15.498;2024-01-16T11:59:01;5.60;58.60
1988;DHT22;12775;46.994;15.498;2024-01-16T12:01:25;5.50;57.90
1988;DHT22;12775;46.994;15.498;2024-01-16T12:04:04;5.50;57.70
1988;DHT22;12775;46.994;15.498;2024-01-16T12:06:31;5.50;58.70
1988;DHT22;12775;46.994;15.498;2024-01-16T12:11:36;5.50;56.40
1988;DHT22;12775;46.994;15.498;2024-01-16T12:14:03;5.70;57.20
1988;DHT22;12775;46.994;15.498;2024-01-16T12:16:30;5.70;55.10
1988;DHT22;12775;46.994;15.498;2024-01-16T12:19:06;5.70;56.00
1988;DHT22;12775;46.994;15.498;2024-01-16T12:21:33;5.80;53.60
1988;DHT22;12775;46.994;15.498;2024-01-16T12:23:59;5.70;52.20
1988;DHT22;12775;46.994;15.498;2024-01-16T12:26:26;5.70;51.80
1988;DHT22;12775;46.994;15.498;2024-01-16T12:28:52;5.70;51.50
1988;DHT22;12775;46.994;15.498;2024-01-16T12:31:19;5.70;50.00
1988;DHT22;12775;46.994;15.498;2024-01-16T12:33:45;5.80;50.80
1988;DHT22;12775;46.994;15.498;2024-01-16T12:36:12;5.70;47.30
1988;DHT22;12775;46.994;15.498;2024-01-16T12:38:39;5.80;51.00
1988;DHT22;12775;46.994;15.498;2024-01-16T12:41:07;5.80;49.20
1988;DHT22;12775;46.994;15.498;2024-01-16T12:43:32;5.70;47.10
1988;DHT22;12775;46.994;15.498;2024-01-16T12:45:58;5.50;43.90
1988;DHT22;12775;46.994;15.498;2024-01-16T12:48:26;5.40;44.80
1988;DHT22;12775;46.994;15.498;2024-01-16T12:51:02;5.40;44.80
1988;DHT22;12775;46.994;15.498;2024-01-16T12:53:30;5.40;46.20
1988;DHT22;12775;46.994;15.498;2024-01-16T12:56:05;5.30;46.00
1988;DHT22;12775;46.994;15.498;2024-01-16T12:58:33;5.40;47.50
1988;DHT22;12775;46.994;15.498;2024-01-16T13:01:04;5.40;48.00
1988;DHT22;12775;46.994;15.498;2024-01-16T13:03:26;5.30;47.40
1988;DHT22;12775;46.994;15.498;2024-01-16T13:05:58;5.20;48.50
1988;DHT22;12775;46.994;15.498;2024-01-16T13:08:24;5.20;48.50
1988;DHT22;12775;46.994;15.498;2024-01-16T13:11:07;5.10;50.20
1988;DHT22;12775;46.994;15.498;2024-01-16T13:13:33;5.00;50.10
1988;DHT22;12775;46.994;15.498;2024-01-16T13:16:00;5.00;49.00
1988;DHT22;12775;46.994;15.498;2024-01-16T13:18:28;5.10;50.30
1988;DHT22;12775;46.994;15.498;2024-01-16T13:20:53;5.20;51.20
1988;DHT22;12775;46.994;15.498;2024-01-16T13:23:19;5.20;50.40
1988;DHT22;12775;46.994;15.498;2024-01-16T13:25:46;5.10;49.50
1988;DHT22;12775;46.994;15.498;2024-01-16T13:28:15;5.00;50.30
1988;DHT22;12775;46.994;15.498;2024-01-16T13:30:41;5.00;49.40
1988;DHT22;12775;46.994;15.498;2024-01-16T13:33:07;5.10;50.00
1988;DHT22;12775;46.994;15.498;2024-01-16T13:35:35;5.10;51.30
1988;DHT22;12775;46.994;15.498;2024-01-16T13:38:02;5.10;50.00
1988;DHT22;12775;46.994;15.498;2024-01-16T13:40:28;5.00;50.00
1988;DHT22;12775;46.994;15.498;2024-01-16T13:42:55;5.00;49.90
1988;DHT22;12775;46.994;15.498;2024-01-16T13:45:22;5.10;51.10
1988;DHT22;12775;46.994;15.498;2024-01-16T13:47:48;5.20;52.90
1988;DHT22;12775;46.994;15.498;2024-01-16T13:50:16;5.30;54.70
1988;DHT22;12775;46.994;15.498;2024-01-16T13:52:43;5.30;54.70
1988;DHT22;12775;46.994;15.498;2024-01-16T13:55:09;5.40;54.50
1988;DHT22;12775;46.994;15.498;2024-01-16T13:57:37;5.20;54.00
1988;DHT22;12775;46.994;15.498;2024-01-16T14:00:05;5.20;53.90
1988;DHT22;12775;46.994;15.498;2024-01-16T14:02:32;5.20;57.90
1988;DHT22;12775;46.994;15.498;2024-01-16T14:04:58;5.10;59.80
1988;DHT22;12775;46.994;15.498;2024-01-16T14:07:25;5.10;60.70
1988;DHT22;12775;46.994;15.498;2024-01-16T14:09:52;5.00;64.10
1988;DHT22;12775;46.994;15.498;2024-01-16T14:12:19;5.00;64.10
1988;DHT22;12775;46.994;15.498;2024-01-16T14:14:45;5.00;64.80
1988;DHT22;12775;46.994;15.498;2024-01-16T14:17:12;5.00;65.30
1988;DHT22;12775;46.994;15.498;2024-01-16T14:19:38;4.80;67.00
1988;DHT22;12775;46.994;15.498;2024-01-16T14:22:06;4.80;68.50
1988;DHT22;12775;46.994;15.498;2024-01-16T14:24:32;4.80;68.40
1988;DHT22;12775;46.994;15.498;2024-01-16T14:26:59;4.80;68.70
1988;DHT22;12775;46.994;15.498;2024-01-16T14:29:25;4.90;69.20
1988;DHT22;12775;46.994;15.498;2024-01-16T14:31:53;5.00;69.80
1988;DHT22;12775;46.994;15.498;2024-01-16T14:34:20;4.90;70.40
1988;DHT22;12775;46.994;15.498;2024-01-16T14:36:46;4.80;70.20
1988;DHT22;12775;46.994;15.498;2024-01-16T14:39:13;4.90;70.80
1988;DHT22;12775;46.994;15.498;2024-01-16T14:41:41;4.90;71.20
1988;DHT22;12775;46.994;15.498;2024-01-16T14:44:08;4.90;71.20
1988;DHT22;12775;46.994;15.498;2024-01-16T14:46:34;4.90;72.00
1988;DHT22;12775;46.994;15.498;2024-01-16T14:49:00;4.90;72.60
1988;DHT22;12775;46.994;15.498;2024-01-16T14:51:27;4.90;72.90
1988;DHT22;12775;46.994;15.498;2024-01-16T14:53:53;4.90;73.10
1988;DHT22;12775;46.994;15.498;2024-01-16T14:56:21;4.90;74.00
1988;DHT22;12775;46.994;15.498;2024-01-16T14:58:47;4.80;73.80
1988;DHT22;12775;46.994;15.498;2024-01-16T15:01:14;4.80;74.20
1988;DHT22;12775;46.994;15.498;2024-01-16T15:03:41;4.60;75.30
1988;DHT22;12775;46.994;15.498;2024-01-16T15:06:09;4.60;75.50
1988;DHT22;12775;46.994;15.498;2024-01-16T15:08:38;4.60;75.50
1988;DHT22;12775;46.994;15.498;2024-01-16T15:11:04;4.60;75.70
1988;DHT22;12775;46.994;15.498;2024-01-16T15:13:32;4.60;75.90
1988;DHT22;12775;46.994;15.498;2024-01-16T15:15:58;4.60;76.00
1988;DHT22;12775;46.994;15.498;2024-01-16T15:18:25;4.60;75.90
1988;DHT22;12775;46.994;15.498;2024-01-16T15:20:52;4.70;76.00
1988;DHT22;12775;46.994;15.498;2024-01-16T15:23:19;4.70;76.00
1988;DHT22;12775;46.994;15.498;2024-01-16T15:25:46;4.80;75.90
1988;DHT22;12775;46.994;15.498;2024-01-16T15:28:14;4.80;76.00
1988;DHT22;12775;46.994;15.498;2024-01-16T15:30:41;4.60;76.60
1988;DHT22;12775;46.994;15.498;2024-01-16T15:33:08;4.60;76.60
1988;DHT22;12775;46.994;15.498;2024-01-16T15:35:34;4.70;76.40
1988;DHT22;12775;46.994;15.498;2024-01-16T15:38:02;4.50;77.20
1988;DHT22;12775;46.994;15.498;2024-01-16T15:40:29;4.40;77.10
1988;DHT22;12775;46.994;15.498;2024-01-16T15:42:55;4.40;77.50
1988;DHT22;12775;46.994;15.498;2024-01-16T15:45:21;4.40;77.70
1988;DHT22;12775;46.994;15.498;2024-01-16T15:47:48;4.30;77.80
1988;DHT22;12775;46.994;15.498;2024-01-16T15:50:15;4.30;78.30